KPGD/PGD METAR and TAF weather

Enter ICAO airport designator
Station Type Date Time Source
KPGD METAR 2019/10/23 01:53 UTC NOAA

KPGD 230153Z AUTO 32006KT 10SM CLR 26/26 A3003 RMK AO2 SLP169 T02610256


Station Type Date Time Source
KPGD Decoded METAR 2019/10/23 01:53 UTC NOAA

PUNTA GORDA CHARLOTTE COUNTY, FL, United States (KPGD) 26-55N 82-00W 7M
Oct 22, 2019 - 09:53 PM EDT / 2019.10.23 0153 UTC
Wind: from the NW (320 degrees) at 7 MPH (6 KT):0
Visibility: 10 mile(s):0
Sky conditions: clear
Temperature: 79.0 F (26.1 C)
Dew Point: 78.1 F (25.6 C)
Relative Humidity: 97%
Pressure (altimeter): 30.03 in. Hg (1016 hPa)
ob: KPGD 230153Z AUTO 32006KT 10SM CLR 26/26 A3003 RMK AO2 SLP169 T02610256
cycle: 2

Station Type Date Time Source
KPGD TAF 2019/10/22 18:36 UTC NOAA

TAF KPGD 221734Z 2218/2318 23006KT P6SM SCT150
FM230800 VRB03KT P6SM FEW150
FM231200 01006KT P6SM SCT015
FM231500 04008KT P6SM BKN110

Example: see airport list